createdAt,value
2023-01-18T00:00:44.356Z,74.26
2023-01-18T00:02:47.165Z,74.06
2023-01-18T00:04:49.741Z,73.72
2023-01-18T00:06:52.444Z,73.83
2023-01-18T00:08:55.895Z,74.28
2023-01-18T00:11:03.449Z,74.21
2023-01-18T00:13:06.447Z,73.48
2023-01-18T00:15:10.427Z,74.07
2023-01-18T00:17:14.400Z,73.55
2023-01-18T00:19:17.097Z,73.88
2023-01-18T00:21:19.684Z,74.06
2023-01-18T00:23:22.218Z,74.25
2023-01-18T00:25:25.835Z,73.94
2023-01-18T00:27:28.345Z,74.05
2023-01-18T00:29:31.420Z,73.44
2023-01-18T00:31:34.002Z,73.54
2023-01-18T00:33:37.965Z,73.49
2023-01-18T00:35:40.548Z,73.44
2023-01-18T00:37:45.043Z,73.96
2023-01-18T00:39:47.609Z,73.71
2023-01-18T00:42:04.087Z,73.96
2023-01-18T00:44:07.139Z,73.84
2023-01-18T00:46:11.397Z,73.77
2023-01-18T00:48:14.045Z,73.89
2023-01-18T00:50:19.516Z,74.52
2023-01-18T00:52:22.098Z,74.29
2023-01-18T00:54:24.677Z,74.27
2023-01-18T00:56:28.671Z,74.22
2023-01-18T00:58:31.614Z,74.39
2023-01-18T01:00:34.581Z,74.32
2023-01-18T01:02:39.737Z,74.23
2023-01-18T01:04:59.689Z,74.89
2023-01-18T01:07:03.590Z,74.13
2023-01-18T01:09:06.152Z,74.30
2023-01-18T01:11:11.148Z,74.53
2023-01-18T01:13:31.743Z,74.18
2023-01-18T01:15:52.136Z,74.58
2023-01-18T01:18:12.346Z,74.81
2023-01-18T01:20:33.301Z,74.16
2023-01-18T01:22:55.054Z,74.23
2023-01-18T01:25:15.470Z,74.49
2023-01-18T01:27:18.440Z,74.50
2023-01-18T01:29:20.988Z,73.96
2023-01-18T01:31:23.565Z,74.19
2023-01-18T01:33:26.159Z,73.98
2023-01-18T01:35:28.729Z,74.15
2023-01-18T01:37:31.316Z,74.65
2023-01-18T01:39:35.255Z,74.91
2023-01-18T01:41:38.124Z,74.17
2023-01-18T01:43:44.778Z,74.50
2023-01-18T01:45:49.676Z,74.78
2023-01-18T01:47:53.906Z,74.63
2023-01-18T01:50:01.715Z,74.46
2023-01-18T01:52:06.661Z,74.63
2023-01-18T01:54:14.026Z,74.90
2023-01-18T01:56:19.608Z,75.15
2023-01-18T01:58:26.978Z,74.85
2023-01-18T02:00:30.319Z,74.88
2023-01-18T02:02:35.203Z,74.98
2023-01-18T02:04:38.827Z,74.87
2023-01-18T02:06:41.893Z,74.15
2023-01-18T02:08:47.265Z,74.31
2023-01-18T02:10:50.235Z,74.39
2023-01-18T02:12:55.192Z,74.61
2023-01-18T02:14:59.308Z,74.68
2023-01-18T02:17:17.132Z,74.66
2023-01-18T02:19:54.401Z,75.11
2023-01-18T02:22:01.376Z,74.90
2023-01-18T02:24:41.819Z,74.66
2023-01-18T02:27:00.235Z,74.85
2023-01-18T02:29:12.156Z,74.64
2023-01-18T02:31:18.363Z,74.70
2023-01-18T02:33:31.840Z,74.65
2023-01-18T02:35:44.896Z,75.00
2023-01-18T02:37:57.132Z,75.23
2023-01-18T02:40:12.484Z,74.93
2023-01-18T02:42:37.696Z,75.46
2023-01-18T02:45:02.756Z,75.44
2023-01-18T02:47:08.118Z,75.53
2023-01-18T02:49:13.321Z,75.36
2023-01-18T02:51:15.837Z,74.99
2023-01-18T02:53:18.799Z,74.37
2023-01-18T02:55:29.625Z,74.82
2023-01-18T02:57:32.264Z,74.79
2023-01-18T02:59:42.068Z,75.27
2023-01-18T03:01:49.897Z,75.12
2023-01-18T03:03:56.297Z,75.34
2023-01-18T03:06:01.721Z,75.30
2023-01-18T03:08:10.362Z,75.00
2023-01-18T03:10:15.217Z,74.73
2023-01-18T03:12:25.425Z,74.67
2023-01-18T03:14:40.117Z,74.52
2023-01-18T03:16:58.871Z,74.95
2023-01-18T03:19:05.776Z,74.18
2023-01-18T03:21:08.471Z,74.81
2023-01-18T03:23:35.231Z,75.17
2023-01-18T03:25:41.502Z,74.34
2023-01-18T03:28:05.403Z,74.75
2023-01-18T03:30:27.665Z,74.75
2023-01-18T03:32:52.880Z,75.10
2023-01-18T03:34:59.827Z,75.07
2023-01-18T03:37:05.570Z,75.26
2023-01-18T03:39:11.807Z,75.19
2023-01-18T03:41:15.162Z,74.93
2023-01-18T03:43:23.469Z,75.35
2023-01-18T03:45:32.104Z,75.14
2023-01-18T03:47:36.407Z,75.47
2023-01-18T03:49:39.189Z,75.45
2023-01-18T03:51:54.013Z,74.88
2023-01-18T03:54:06.602Z,75.25
2023-01-18T03:56:16.872Z,75.52
2023-01-18T03:58:23.616Z,74.76
2023-01-18T04:00:26.644Z,75.00
2023-01-18T04:02:29.794Z,75.04
2023-01-18T04:04:33.831Z,75.29
2023-01-18T04:06:36.418Z,74.46
2023-01-18T04:08:38.992Z,74.98
2023-01-18T04:10:43.774Z,75.13
2023-01-18T04:12:46.394Z,75.27
2023-01-18T04:14:48.956Z,74.99
2023-01-18T04:16:51.510Z,74.98
2023-01-18T04:18:54.091Z,74.96
2023-01-18T04:20:57.982Z,75.64
2023-01-18T04:23:00.906Z,74.93
2023-01-18T04:25:03.710Z,74.73
2023-01-18T04:27:06.255Z,74.69
2023-01-18T04:29:09.082Z,75.30
2023-01-18T04:31:14.327Z,74.95
2023-01-18T04:33:17.903Z,74.99
2023-01-18T04:35:20.461Z,75.25
2023-01-18T04:37:30.252Z,75.28
2023-01-18T04:39:32.831Z,75.35
2023-01-18T04:41:35.427Z,75.21
2023-01-18T04:43:38.148Z,75.20
2023-01-18T04:45:40.746Z,75.41
2023-01-18T04:47:43.412Z,75.40
2023-01-18T04:49:46.070Z,75.42
2023-01-18T04:51:48.675Z,75.34
2023-01-18T04:53:52.906Z,75.61
2023-01-18T04:55:55.562Z,76.24
2023-01-18T04:57:58.196Z,76.29
2023-01-18T05:00:02.244Z,76.18
2023-01-18T05:02:04.950Z,76.04
2023-01-18T05:04:07.592Z,75.89
2023-01-18T05:06:12.433Z,75.80
2023-01-18T05:08:14.970Z,75.67
2023-01-18T05:10:20.192Z,75.96
2023-01-18T05:12:22.774Z,76.14
2023-01-18T05:14:25.392Z,75.88
2023-01-18T05:16:28.098Z,75.93
2023-01-18T05:18:31.118Z,75.40
2023-01-18T05:20:33.706Z,75.73
2023-01-18T05:22:37.140Z,75.54
2023-01-18T05:24:39.750Z,76.19
2023-01-18T05:26:43.658Z,75.80
2023-01-18T05:28:47.005Z,75.47
2023-01-18T05:30:50.153Z,75.86
2023-01-18T05:32:52.729Z,75.62
2023-01-18T05:34:55.398Z,75.58
2023-01-18T05:36:58.741Z,76.02
2023-01-18T05:39:01.380Z,76.10
2023-01-18T05:41:04.323Z,75.95
2023-01-18T05:43:08.226Z,76.00
2023-01-18T05:45:11.605Z,75.53
2023-01-18T05:47:14.199Z,75.85
2023-01-18T05:49:16.835Z,75.45
2023-01-18T05:51:19.358Z,75.20
2023-01-18T05:53:23.211Z,75.92
2023-01-18T05:55:25.871Z,75.59
2023-01-18T05:57:28.445Z,75.15
2023-01-18T05:59:32.352Z,74.66
2023-01-18T06:01:35.335Z,75.09
2023-01-18T06:03:37.965Z,74.71
2023-01-18T06:05:40.508Z,74.26
2023-01-18T06:07:43.303Z,74.58
2023-01-18T06:09:45.821Z,74.07
2023-01-18T06:11:48.346Z,73.96
2023-01-18T06:13:51.301Z,74.32
2023-01-18T06:15:55.696Z,73.85
2023-01-18T06:17:59.317Z,74.50
2023-01-18T06:20:01.985Z,74.36
2023-01-18T06:22:04.614Z,73.71
2023-01-18T06:24:07.720Z,74.38
2023-01-18T06:26:10.264Z,74.12
2023-01-18T06:28:13.027Z,74.92
2023-01-18T06:30:16.457Z,74.55
2023-01-18T06:32:20.391Z,74.83
2023-01-18T06:34:22.920Z,75.01
2023-01-18T06:36:25.593Z,75.23
2023-01-18T06:38:29.716Z,74.54
2023-01-18T06:40:32.349Z,74.63
2023-01-18T06:42:34.919Z,74.70
2023-01-18T06:44:37.554Z,74.10
2023-01-18T06:46:40.127Z,74.78
2023-01-18T06:48:44.055Z,74.68
2023-01-18T06:50:46.651Z,74.09
2023-01-18T06:52:49.473Z,74.28
2023-01-18T06:54:52.018Z,73.81
2023-01-18T06:56:54.595Z,74.34
2023-01-18T06:58:58.846Z,73.33
2023-01-18T07:01:02.416Z,73.91
2023-01-18T07:03:05.222Z,74.26
2023-01-18T07:05:09.793Z,74.70
2023-01-18T07:07:12.541Z,74.29
2023-01-18T07:09:15.168Z,74.13
2023-01-18T07:11:18.653Z,74.58
2023-01-18T07:13:22.110Z,74.37
2023-01-18T07:15:24.683Z,74.07
2023-01-18T07:17:27.249Z,74.26
2023-01-18T07:19:29.787Z,74.47
2023-01-18T07:21:33.695Z,73.71
2023-01-18T07:23:38.117Z,73.74
2023-01-18T07:25:40.637Z,74.61
2023-01-18T07:27:43.608Z,74.61
2023-01-18T07:29:47.687Z,75.30
2023-01-18T07:31:51.987Z,74.90
2023-01-18T07:33:54.626Z,74.93
2023-01-18T07:35:58.653Z,75.22
2023-01-18T07:38:02.555Z,75.04
2023-01-18T07:40:06.017Z,75.14
2023-01-18T07:42:09.056Z,74.96
2023-01-18T07:44:11.842Z,74.60
2023-01-18T07:46:16.938Z,74.75
2023-01-18T07:48:19.548Z,75.36
2023-01-18T07:50:22.551Z,74.67
2023-01-18T07:52:25.622Z,74.95
2023-01-18T07:54:29.559Z,74.63
2023-01-18T07:56:32.099Z,74.57
2023-01-18T07:58:35.804Z,74.75
2023-01-18T08:00:38.381Z,75.21
2023-01-18T08:02:40.972Z,74.64
2023-01-18T08:04:45.185Z,74.23
2023-01-18T08:06:47.712Z,74.72
2023-01-18T08:08:50.333Z,74.87
2023-01-18T08:10:56.960Z,74.81
2023-01-18T08:12:59.916Z,74.39
2023-01-18T08:15:02.719Z,74.23
2023-01-18T08:17:06.334Z,74.35
2023-01-18T08:19:08.889Z,73.39
2023-01-18T08:21:12.341Z,73.82
2023-01-18T08:23:15.746Z,73.95
2023-01-18T08:25:18.363Z,73.78
2023-01-18T08:27:22.497Z,72.47
2023-01-18T08:29:25.153Z,73.02
2023-01-18T08:31:28.022Z,72.93
2023-01-18T08:33:30.892Z,72.87
2023-01-18T08:35:35.712Z,72.83
2023-01-18T08:37:38.716Z,72.96
2023-01-18T08:39:41.290Z,72.70
2023-01-18T08:41:43.961Z,73.14
2023-01-18T08:43:50.727Z,73.23
2023-01-18T08:45:53.348Z,73.65
2023-01-18T08:48:00.275Z,72.74
2023-01-18T08:50:02.819Z,72.50
2023-01-18T08:52:05.859Z,72.33
2023-01-18T08:54:08.457Z,73.11
2023-01-18T08:56:11.716Z,72.88
2023-01-18T08:58:14.300Z,72.42
2023-01-18T09:00:19.222Z,72.35
2023-01-18T09:02:21.827Z,72.82
2023-01-18T09:04:24.812Z,71.74
2023-01-18T09:06:31.946Z,72.57
2023-01-18T09:08:34.959Z,72.22
2023-01-18T09:10:38.701Z,72.07
2023-01-18T09:12:41.837Z,72.31
2023-01-18T09:14:44.418Z,71.63
2023-01-18T09:16:48.325Z,71.08
2023-01-18T09:18:50.978Z,69.95
2023-01-18T09:20:54.401Z,70.16
2023-01-18T09:22:57.312Z,70.25
2023-01-18T09:25:00.112Z,70.75
2023-01-18T09:27:02.902Z,70.66
2023-01-18T09:29:05.449Z,70.83
2023-01-18T09:31:09.713Z,70.77
2023-01-18T09:33:16.653Z,70.59
2023-01-18T09:35:19.197Z,70.48
2023-01-18T09:37:21.829Z,70.41
2023-01-18T09:39:24.580Z,70.68
2023-01-18T09:41:33.132Z,71.10
2023-01-18T09:43:39.075Z,69.97
2023-01-18T09:45:44.427Z,69.61
2023-01-18T09:47:50.119Z,69.27
2023-01-18T09:49:57.328Z,69.65
2023-01-18T09:52:13.173Z,69.50
2023-01-18T09:54:32.577Z,68.99
2023-01-18T09:56:45.183Z,68.93
2023-01-18T09:58:58.192Z,69.00
2023-01-18T10:01:05.910Z,68.65
2023-01-18T10:03:18.121Z,68.55
2023-01-18T10:05:25.065Z,70.00
2023-01-18T10:07:31.976Z,69.94
2023-01-18T10:09:39.600Z,69.80
2023-01-18T10:11:49.030Z,69.92
2023-01-18T10:13:58.455Z,70.39
2023-01-18T10:16:02.557Z,71.05
2023-01-18T10:18:05.263Z,70.88
2023-01-18T10:20:16.267Z,70.56
2023-01-18T10:22:24.565Z,70.87
2023-01-18T10:24:45.847Z,71.21
2023-01-18T10:26:49.956Z,71.70
2023-01-18T10:29:00.275Z,72.23
2023-01-18T10:31:15.414Z,71.83
2023-01-18T10:33:23.128Z,70.77
2023-01-18T10:35:30.899Z,70.82
2023-01-18T10:37:42.676Z,71.41
2023-01-18T10:39:48.692Z,71.33
2023-01-18T10:41:52.307Z,71.43
2023-01-18T10:43:55.180Z,72.01
2023-01-18T10:45:57.838Z,70.94
2023-01-18T10:48:19.621Z,71.23
2023-01-18T10:50:24.605Z,70.70
2023-01-18T10:52:30.189Z,70.70
2023-01-18T10:54:34.085Z,69.30
2023-01-18T10:56:36.736Z,69.09
2023-01-18T10:58:44.800Z,69.61
2023-01-18T11:00:54.452Z,68.80
2023-01-18T11:02:58.870Z,68.84
2023-01-18T11:05:07.620Z,68.51
2023-01-18T11:07:10.314Z,68.27
2023-01-18T11:09:42.292Z,68.51
2023-01-18T11:12:02.563Z,69.44
2023-01-18T11:14:24.491Z,69.43
2023-01-18T11:16:30.027Z,69.76
2023-01-18T11:18:32.761Z,69.70
2023-01-18T11:20:39.775Z,70.50
2023-01-18T11:22:54.711Z,69.17
2023-01-18T11:24:58.859Z,69.63
2023-01-18T11:27:03.396Z,69.66
2023-01-18T11:29:07.814Z,69.66
2023-01-18T11:31:12.890Z,69.58
2023-01-18T11:33:19.523Z,69.91
2023-01-18T11:35:29.136Z,69.26
2023-01-18T11:37:35.285Z,68.42
2023-01-18T11:39:39.278Z,68.71
2023-01-18T11:41:43.344Z,68.45
2023-01-18T11:43:56.274Z,68.03
2023-01-18T11:46:04.403Z,68.13
2023-01-18T11:48:13.936Z,68.46
2023-01-18T11:50:28.896Z,68.32
2023-01-18T11:52:43.206Z,67.29
2023-01-18T11:54:50.678Z,67.07
2023-01-18T11:56:58.896Z,67.80
2023-01-18T11:59:03.355Z,67.84
2023-01-18T12:01:27.653Z,67.78
2023-01-18T12:03:50.227Z,66.36
2023-01-18T12:05:56.376Z,66.72
2023-01-18T12:08:11.927Z,66.86
2023-01-18T12:10:21.660Z,66.65
2023-01-18T12:12:37.657Z,66.38
2023-01-18T12:14:55.247Z,67.00
2023-01-18T12:17:19.875Z,67.03
2023-01-18T12:19:50.675Z,67.30
2023-01-18T12:22:12.646Z,67.34
2023-01-18T12:24:28.346Z,66.84
2023-01-18T12:26:46.959Z,67.06
2023-01-18T12:29:06.702Z,66.88
2023-01-18T12:31:21.562Z,66.65
2023-01-18T12:33:43.759Z,67.30
2023-01-18T12:36:01.367Z,67.78
2023-01-18T12:38:17.145Z,67.08
2023-01-18T12:40:46.567Z,67.35
2023-01-18T12:42:58.646Z,67.68
2023-01-18T12:45:16.625Z,67.20
2023-01-18T12:47:32.763Z,67.37
2023-01-18T12:49:41.218Z,67.56
2023-01-18T12:51:46.352Z,67.76
2023-01-18T12:53:51.874Z,67.51
2023-01-18T12:55:56.254Z,68.16
2023-01-18T12:58:02.089Z,67.97
2023-01-18T13:00:15.334Z,67.86
2023-01-18T13:02:28.020Z,68.37
2023-01-18T13:04:36.658Z,67.66
2023-01-18T13:06:40.745Z,67.71
2023-01-18T13:08:46.721Z,68.00
2023-01-18T13:10:49.777Z,68.10
2023-01-18T13:12:54.180Z,68.65
2023-01-18T13:15:04.993Z,69.03
2023-01-18T13:17:14.028Z,68.93
2023-01-18T13:19:24.613Z,68.52
2023-01-18T13:21:41.129Z,68.89
2023-01-18T13:23:53.598Z,69.28
2023-01-18T13:26:04.511Z,69.64
2023-01-18T13:28:18.815Z,69.16
2023-01-18T13:30:21.765Z,69.73
2023-01-18T13:32:34.456Z,69.54
2023-01-18T13:34:48.005Z,68.75
2023-01-18T13:36:51.263Z,70.05
2023-01-18T13:38:57.775Z,69.66
2023-01-18T13:41:02.686Z,70.56
2023-01-18T13:43:06.504Z,70.19
2023-01-18T13:45:21.014Z,69.43
2023-01-18T13:47:49.889Z,69.71
2023-01-18T13:49:52.509Z,69.53
2023-01-18T13:51:57.473Z,69.58
2023-01-18T13:54:00.150Z,69.90
2023-01-18T13:56:34.295Z,69.64
2023-01-18T13:58:38.218Z,69.30
2023-01-18T14:00:48.219Z,69.41
2023-01-18T14:02:56.702Z,70.12
2023-01-18T14:05:05.237Z,70.29
2023-01-18T14:07:17.600Z,69.34
2023-01-18T14:09:33.090Z,69.31
2023-01-18T14:11:38.192Z,69.52
2023-01-18T14:14:08.262Z,68.13
2023-01-18T14:16:17.907Z,69.07
2023-01-18T14:18:27.142Z,69.60
2023-01-18T14:21:02.371Z,69.79
2023-01-18T14:23:25.211Z,69.84
2023-01-18T14:25:52.750Z,69.41
2023-01-18T14:28:15.157Z,69.38
2023-01-18T14:30:25.535Z,69.76
2023-01-18T14:32:34.288Z,69.59
2023-01-18T14:34:40.533Z,69.26
2023-01-18T14:36:43.360Z,69.39
2023-01-18T14:38:45.926Z,69.05
2023-01-18T14:40:50.524Z,68.38
2023-01-18T14:42:55.854Z,68.92
2023-01-18T14:44:59.289Z,68.64
2023-01-18T14:47:18.653Z,68.99
2023-01-18T14:49:27.944Z,69.08
2023-01-18T14:51:32.202Z,69.15
2023-01-18T14:53:47.307Z,68.80
2023-01-18T14:56:06.923Z,68.53
2023-01-18T14:58:15.547Z,68.29
2023-01-18T15:00:19.982Z,68.35
2023-01-18T15:02:27.070Z,67.38
2023-01-18T15:04:32.827Z,67.76
2023-01-18T15:06:41.324Z,67.70
2023-01-18T15:08:46.340Z,67.88
2023-01-18T15:10:49.428Z,67.49
2023-01-18T15:12:55.265Z,67.63
2023-01-18T15:15:04.799Z,66.89
2023-01-18T15:17:09.751Z,66.64
2023-01-18T15:19:18.560Z,65.85
2023-01-18T15:21:24.538Z,65.72
2023-01-18T15:23:29.626Z,65.52
2023-01-18T15:25:33.799Z,64.96
2023-01-18T15:27:37.118Z,64.54
2023-01-18T15:29:39.877Z,65.61
2023-01-18T15:31:54.589Z,65.75
2023-01-18T15:33:57.510Z,66.21
2023-01-18T15:36:02.155Z,65.51
2023-01-18T15:38:05.670Z,65.12
2023-01-18T15:40:30.896Z,65.95
2023-01-18T15:42:39.174Z,66.32
2023-01-18T15:44:46.368Z,66.11
2023-01-18T15:46:49.089Z,66.62
2023-01-18T15:48:54.468Z,66.05
2023-01-18T15:51:05.242Z,66.43
2023-01-18T15:53:11.899Z,65.84
2023-01-18T15:55:25.154Z,66.12
2023-01-18T15:57:28.069Z,66.49
2023-01-18T15:59:30.703Z,66.89
2023-01-18T16:01:34.884Z,67.74
2023-01-18T16:03:40.069Z,68.50
2023-01-18T16:05:42.662Z,68.37
2023-01-18T16:07:45.204Z,68.36
2023-01-18T16:09:47.984Z,68.34
2023-01-18T16:11:54.219Z,68.81
2023-01-18T16:13:58.867Z,69.65
2023-01-18T16:16:09.369Z,69.66
2023-01-18T16:18:14.533Z,69.60
2023-01-18T16:20:17.860Z,69.71
2023-01-18T16:22:22.985Z,69.24
2023-01-18T16:24:31.155Z,69.66
2023-01-18T16:26:33.773Z,69.40
2023-01-18T16:28:37.761Z,69.71
2023-01-18T16:30:41.149Z,69.23
2023-01-18T16:32:43.722Z,69.27
2023-01-18T16:34:46.245Z,70.06
2023-01-18T16:36:49.233Z,70.26
2023-01-18T16:38:51.852Z,70.27
2023-01-18T16:40:55.286Z,70.63
2023-01-18T16:43:01.400Z,70.43
2023-01-18T16:45:08.632Z,70.46
2023-01-18T16:47:13.065Z,70.97
2023-01-18T16:49:16.739Z,70.44
2023-01-18T16:51:19.304Z,71.36
2023-01-18T16:53:21.845Z,71.20
2023-01-18T16:55:24.579Z,71.02
2023-01-18T16:57:29.678Z,71.57
2023-01-18T16:59:32.246Z,71.74
2023-01-18T17:01:36.288Z,71.50
2023-01-18T17:03:39.529Z,71.15
2023-01-18T17:05:42.162Z,71.59
2023-01-18T17:07:45.332Z,71.00
2023-01-18T17:09:49.333Z,71.71
2023-01-18T17:11:52.963Z,71.11
2023-01-18T17:13:55.590Z,71.06
2023-01-18T17:15:58.131Z,71.12
2023-01-18T17:18:02.228Z,71.07
2023-01-18T17:20:17.372Z,71.31
2023-01-18T17:22:19.928Z,70.95
2023-01-18T17:24:23.983Z,71.32
2023-01-18T17:26:26.519Z,71.44
2023-01-18T17:28:29.371Z,71.23
2023-01-18T17:30:32.753Z,71.25
2023-01-18T17:32:35.490Z,71.87
2023-01-18T17:34:39.498Z,71.85
2023-01-18T17:36:42.056Z,71.46
2023-01-18T17:38:44.634Z,71.16
2023-01-18T17:40:47.381Z,71.78
2023-01-18T17:42:51.770Z,71.74
2023-01-18T17:45:02.362Z,71.08
2023-01-18T17:47:05.002Z,71.71
2023-01-18T17:49:07.895Z,71.85
2023-01-18T17:51:13.436Z,71.48
2023-01-18T17:53:16.045Z,71.42
2023-01-18T17:55:24.326Z,72.03
2023-01-18T17:57:30.127Z,72.06
2023-01-18T17:59:32.725Z,71.39
2023-01-18T18:01:35.516Z,71.68
2023-01-18T18:03:38.990Z,71.37
2023-01-18T18:05:41.566Z,71.40
2023-01-18T18:07:45.622Z,71.67
2023-01-18T18:09:48.162Z,72.26
2023-01-18T18:11:50.889Z,71.55
2023-01-18T18:13:54.244Z,71.92
2023-01-18T18:15:57.077Z,71.91
2023-01-18T18:17:59.700Z,72.13
2023-01-18T18:20:02.416Z,71.94
2023-01-18T18:22:06.047Z,72.13
2023-01-18T18:24:10.309Z,72.37
2023-01-18T18:26:12.882Z,71.90
2023-01-18T18:28:15.447Z,71.71
2023-01-18T18:30:18.989Z,72.15
2023-01-18T18:32:21.570Z,72.01
2023-01-18T18:34:24.511Z,71.89
2023-01-18T18:36:27.913Z,72.05
2023-01-18T18:38:30.647Z,71.66
2023-01-18T18:40:34.552Z,71.47
2023-01-18T18:42:37.067Z,71.94
2023-01-18T18:44:39.631Z,71.75
2023-01-18T18:46:42.215Z,71.57
2023-01-18T18:48:44.830Z,71.32
2023-01-18T18:50:48.190Z,71.55
2023-01-18T18:52:50.777Z,71.78
2023-01-18T18:54:53.385Z,71.18
2023-01-18T18:57:00.676Z,71.22
2023-01-18T18:59:03.236Z,70.74
2023-01-18T19:01:06.144Z,71.04
2023-01-18T19:03:09.232Z,71.28
2023-01-18T19:05:12.242Z,70.51
2023-01-18T19:07:14.964Z,70.70
2023-01-18T19:09:17.525Z,70.65
2023-01-18T19:11:20.761Z,70.68
2023-01-18T19:13:24.672Z,70.35
2023-01-18T19:15:27.284Z,70.17
2023-01-18T19:17:31.569Z,69.36
2023-01-18T19:19:34.441Z,68.75
2023-01-18T19:21:38.650Z,68.97
2023-01-18T19:23:41.184Z,68.67
2023-01-18T19:25:43.758Z,67.74
2023-01-18T19:27:46.724Z,67.63
2023-01-18T19:29:52.618Z,67.98
2023-01-18T19:31:55.624Z,67.59
2023-01-18T19:33:58.644Z,68.05
2023-01-18T19:36:08.252Z,68.40
2023-01-18T19:38:11.485Z,67.80
2023-01-18T19:40:15.278Z,67.56
2023-01-18T19:42:17.835Z,66.54
2023-01-18T19:44:20.494Z,66.46
2023-01-18T19:46:24.411Z,65.91
2023-01-18T19:48:26.988Z,66.95
2023-01-18T19:50:30.964Z,66.66
2023-01-18T19:52:33.963Z,66.69
2023-01-18T19:54:36.556Z,66.71
2023-01-18T19:56:39.272Z,66.87
2023-01-18T19:58:42.119Z,67.29
2023-01-18T20:00:44.667Z,67.61
2023-01-18T20:02:48.804Z,67.30
2023-01-18T20:04:52.071Z,67.92
2023-01-18T20:06:54.704Z,67.87
2023-01-18T20:08:57.416Z,68.03
2023-01-18T20:11:04.819Z,67.79
2023-01-18T20:13:07.436Z,68.18
2023-01-18T20:15:10.318Z,68.54
2023-01-18T20:17:14.344Z,68.50
2023-01-18T20:19:19.167Z,68.45
2023-01-18T20:21:22.389Z,68.68
2023-01-18T20:23:24.926Z,69.07
2023-01-18T20:25:30.064Z,68.39
2023-01-18T20:27:32.683Z,68.15
2023-01-18T20:29:35.246Z,68.40
2023-01-18T20:31:39.755Z,68.37
2023-01-18T20:33:42.743Z,67.78
2023-01-18T20:35:47.292Z,67.73
2023-01-18T20:37:49.888Z,68.14
2023-01-18T20:39:52.880Z,67.91
2023-01-18T20:41:55.401Z,68.08
2023-01-18T20:43:58.031Z,67.92
2023-01-18T20:46:01.963Z,68.01
2023-01-18T20:48:05.899Z,68.27
2023-01-18T20:50:09.885Z,67.96
2023-01-18T20:52:14.162Z,67.46
2023-01-18T20:54:19.870Z,67.70
2023-01-18T20:56:29.085Z,68.13
2023-01-18T20:58:32.339Z,68.42
2023-01-18T21:00:34.998Z,68.72
2023-01-18T21:02:37.569Z,67.90
2023-01-18T21:04:40.528Z,68.51
2023-01-18T21:06:44.744Z,68.61
2023-01-18T21:08:48.679Z,68.83
2023-01-18T21:10:51.426Z,68.99
2023-01-18T21:12:53.983Z,68.63
2023-01-18T21:14:56.519Z,68.49
2023-01-18T21:16:59.093Z,68.62
2023-01-18T21:19:01.708Z,68.84
2023-01-18T21:21:04.561Z,68.41
2023-01-18T21:23:07.150Z,68.69
2023-01-18T21:25:11.343Z,68.72
2023-01-18T21:27:13.936Z,68.66
2023-01-18T21:29:16.484Z,68.43
2023-01-18T21:31:19.132Z,68.41
2023-01-18T21:33:22.053Z,68.09
2023-01-18T21:35:24.617Z,69.03
2023-01-18T21:37:27.786Z,68.86
2023-01-18T21:39:30.378Z,68.53
2023-01-18T21:41:51.686Z,68.83
2023-01-18T21:44:12.704Z,69.01
2023-01-18T21:46:15.522Z,68.72
2023-01-18T21:48:18.096Z,68.57
2023-01-18T21:50:38.491Z,68.11
2023-01-18T21:52:58.497Z,68.36
2023-01-18T21:55:01.102Z,68.84
2023-01-18T21:57:06.080Z,69.34
2023-01-18T21:59:07.620Z,69.58
2023-01-18T22:01:11.643Z,68.99
2023-01-18T22:03:15.322Z,69.41
2023-01-18T22:05:16.894Z,69.64
2023-01-18T22:07:19.427Z,68.48
2023-01-18T22:09:22.268Z,68.54
2023-01-18T22:11:24.839Z,68.70
2023-01-18T22:13:28.743Z,68.81
2023-01-18T22:15:31.275Z,68.70
2023-01-18T22:17:33.898Z,69.06
2023-01-18T22:19:36.537Z,68.86
2023-01-18T22:21:39.232Z,69.05
2023-01-18T22:23:41.774Z,69.11
2023-01-18T22:25:44.348Z,68.36
2023-01-18T22:27:47.221Z,68.57
2023-01-18T22:29:51.193Z,68.57
2023-01-18T22:31:56.227Z,69.26
2023-01-18T22:33:58.910Z,69.47
2023-01-18T22:36:01.615Z,68.64
2023-01-18T22:38:04.432Z,69.28
2023-01-18T22:40:08.722Z,69.30
2023-01-18T22:42:11.285Z,69.28
2023-01-18T22:44:16.683Z,68.55
2023-01-18T22:46:21.829Z,68.59
2023-01-18T22:48:25.013Z,69.13
2023-01-18T22:50:27.577Z,69.16
2023-01-18T22:52:30.149Z,69.03
2023-01-18T22:54:32.707Z,69.47
2023-01-18T22:56:35.627Z,69.17
2023-01-18T22:58:38.204Z,69.59
2023-01-18T23:00:42.949Z,69.94
2023-01-18T23:02:46.847Z,69.33
2023-01-18T23:04:49.393Z,69.88
2023-01-18T23:06:54.570Z,69.36
2023-01-18T23:08:57.378Z,69.38
2023-01-18T23:10:59.959Z,70.35
2023-01-18T23:13:02.594Z,69.40
2023-01-18T23:15:23.357Z,69.77
2023-01-18T23:17:39.975Z,69.30
2023-01-18T23:19:43.999Z,69.15
2023-01-18T23:21:46.598Z,69.68
2023-01-18T23:23:49.349Z,69.17
2023-01-18T23:25:55.500Z,69.70
2023-01-18T23:28:03.180Z,69.06
2023-01-18T23:30:06.824Z,68.85
2023-01-18T23:32:09.578Z,68.93
2023-01-18T23:34:12.194Z,69.01
2023-01-18T23:36:16.182Z,69.36
2023-01-18T23:38:18.718Z,69.75
2023-01-18T23:40:38.966Z,68.94
2023-01-18T23:42:59.114Z,69.25
2023-01-18T23:45:19.048Z,68.79
2023-01-18T23:47:39.110Z,68.81
2023-01-18T23:49:59.385Z,69.05
2023-01-18T23:52:20.698Z,69.39
2023-01-18T23:54:23.411Z,68.36
2023-01-18T23:56:26.169Z,69.30
2023-01-18T23:58:28.975Z,68.73
